Time;durP1;ratioP1;P1;durP2;ratioP2;P2;SDS_P1;SDS_P2;PMS_P1;PMS_P2;Temp;Humidity;BMP_temperature;BMP_pressure;BME280_temperature;BME280_humidity;BME280_pressure;Samples;Min_cycle;Max_cycle;Signal;HPM_P1;HPM_P2
2024/03/08 00:00:12;;;;;;;48.70;27.70;;;;;;;-2.55;65.31;100127.87;107494;1255;67744;-39
2024/03/08 00:02:45;;;;;;;50.90;27.50;;;;;;;-2.54;65.42;100128.15;107404;1254;72666;-39
2024/03/08 00:05:13;;;;;;;46.70;26.60;;;;;;;-2.51;65.10;100126.04;107585;1254;60478;-38
2024/03/08 00:07:41;;;;;;;57.00;28.90;;;;;;;-2.51;65.01;100127.31;107592;1253;60206;-39
2024/03/08 00:10:11;;;;;;;54.10;28.00;;;;;;;-2.51;65.13;100124.93;107455;1254;73848;-39
2024/03/08 00:12:44;;;;;;;45.60;26.50;;;;;;;-2.52;65.10;100123.33;107591;1255;67894;-39
2024/03/08 00:15:14;;;;;;;46.50;25.20;;;;;;;-2.56;65.19;100124.78;107556;1254;71405;-39
2024/03/08 00:17:44;;;;;;;47.40;27.00;;;;;;;-2.63;65.86;100122.20;107554;1254;60914;-39
2024/03/08 00:20:13;;;;;;;36.10;21.50;;;;;;;-2.66;65.77;100114.41;107402;1254;60482;-39
2024/03/08 00:22:41;;;;;;;44.50;27.20;;;;;;;-2.67;65.73;100114.41;107417;1252;73857;-39
2024/03/08 00:25:09;;;;;;;47.30;26.40;;;;;;;-2.68;65.96;100112.86;107480;1258;67907;-39
2024/03/08 00:27:40;;;;;;;44.50;26.30;;;;;;;-2.69;66.05;100114.18;107487;1254;72687;-39
2024/03/08 00:30:09;;;;;;;48.00;25.60;;;;;;;-2.70;66.10;100113.64;107560;1254;61012;-39
2024/03/08 00:32:37;;;;;;;43.40;24.40;;;;;;;-2.70;65.97;100119.05;107606;1254;60424;-39
2024/03/08 00:35:08;;;;;;;41.40;23.70;;;;;;;-2.63;65.80;100114.70;106690;1252;1004073;-39
2024/03/08 00:37:36;;;;;;;40.90;22.90;;;;;;;-2.52;65.58;100110.42;107538;1254;67679;-39
2024/03/08 00:40:06;;;;;;;45.20;24.70;;;;;;;-2.48;65.69;100109.17;107579;1254;72734;-40
2024/03/08 00:42:35;;;;;;;44.60;24.60;;;;;;;-2.46;65.70;100104.20;107520;1254;59580;-39
2024/03/08 00:45:03;;;;;;;39.30;24.10;;;;;;;-2.44;65.70;100103.48;107504;1254;60289;-39
2024/03/08 00:47:30;;;;;;;43.00;25.70;;;;;;;-2.42;65.67;100100.56;107613;1254;73860;-39
2024/03/08 00:49:58;;;;;;;46.10;26.10;;;;;;;-2.42;65.50;100096.95;107486;1254;67675;-39
2024/03/08 00:52:26;;;;;;;39.20;24.60;;;;;;;-2.43;65.70;100098.44;107509;1259;72699;-38
2024/03/08 00:54:53;;;;;;;41.00;24.40;;;;;;;-2.48;65.61;100096.48;107496;1254;60402;-39
2024/03/08 00:57:21;;;;;;;41.00;25.30;;;;;;;-2.50;65.99;100093.98;107495;1254;60399;-39
2024/03/08 00:59:49;;;;;;;42.20;25.20;;;;;;;-2.52;65.81;100093.39;106835;1255;1003375;-39
2024/03/08 01:02:18;;;;;;;48.10;25.80;;;;;;;-2.55;65.82;100091.98;106845;1254;1003537;-39
2024/03/08 01:04:47;;;;;;;42.50;25.00;;;;;;;-2.60;65.79;100086.70;106685;1259;1002926;-39
2024/03/08 01:07:15;;;;;;;42.90;26.50;;;;;;;-2.64;65.54;100087.09;107531;1257;60555;-39
2024/03/08 01:09:43;;;;;;;46.80;26.80;;;;;;;-2.71;65.49;100087.79;107353;1255;60300;-39
2024/03/08 01:12:10;;;;;;;43.60;26.60;;;;;;;-2.77;65.73;100086.79;106694;1254;1015922;-39
2024/03/08 01:14:38;;;;;;;47.70;25.00;;;;;;;-2.82;65.83;100080.59;107617;1254;67576;-39
2024/03/08 01:17:06;;;;;;;41.90;24.30;;;;;;;-2.79;65.72;100084.33;107474;1254;71326;-39
2024/03/08 01:19:34;;;;;;;42.10;24.30;;;;;;;-2.72;65.44;100080.40;107504;1254;60370;-39
2024/03/08 01:22:01;;;;;;;40.70;25.40;;;;;;;-2.70;65.51;100078.07;107499;1254;59736;-39
2024/03/08 01:24:29;;;;;;;43.20;25.70;;;;;;;-2.70;65.70;100074.98;107492;1254;73860;-39
2024/03/08 01:26:56;;;;;;;40.00;24.10;;;;;;;-2.70;65.82;100074.46;107387;1254;66381;-39
2024/03/08 01:29:24;;;;;;;39.20;24.40;;;;;;;-2.72;65.98;100072.88;107480;1254;72607;-38
2024/03/08 01:31:52;;;;;;;40.90;24.50;;;;;;;-2.74;65.96;100075.19;107507;1254;60319;-38
2024/03/08 01:34:20;;;;;;;43.80;25.20;;;;;;;-2.76;65.82;100072.30;107496;1254;60309;-39
2024/03/08 01:36:48;;;;;;;42.30;24.80;;;;;;;-2.79;65.59;100076.10;107512;1254;73829;-38
2024/03/08 01:39:17;;;;;;;44.20;25.20;;;;;;;-2.81;65.24;100071.38;106751;1259;1003099;-39
2024/03/08 01:41:44;;;;;;;41.80;25.10;;;;;;;-2.83;65.06;100074.96;107515;1254;72661;-40
2024/03/08 01:44:17;;;;;;;45.50;26.60;;;;;;;-2.84;64.97;100070.05;106739;1254;1002929;-39
2024/03/08 01:46:45;;;;;;;45.00;25.40;;;;;;;-2.85;64.91;100066.71;107357;1254;60314;-39
2024/03/08 01:49:12;;;;;;;45.30;26.20;;;;;;;-2.88;64.95;100061.67;107379;1254;73838;-39
2024/03/08 01:51:41;;;;;;;44.40;25.40;;;;;;;-2.89;65.05;100055.00;107231;1254;67999;-39
2024/03/08 01:54:09;;;;;;;45.00;26.20;;;;;;;-2.90;65.17;100055.05;107542;1254;72735;-39
2024/03/08 01:56:37;;;;;;;46.40;25.90;;;;;;;-2.91;65.13;100052.51;107351;1254;60332;-39
2024/03/08 01:59:07;;;;;;;44.10;26.60;;;;;;;-2.92;65.23;100052.17;107347;1254;60337;-40
2024/03/08 02:01:35;;;;;;;44.50;27.20;;;;;;;-2.94;65.32;100058.41;106772;1254;1003357;-38
2024/03/08 02:04:02;;;;;;;47.50;27.50;;;;;;;-2.97;65.33;100055.76;107380;1254;66448;-39
2024/03/08 02:06:30;;;;;;;47.20;27.40;;;;;;;-2.94;65.74;100052.96;107383;1254;72832;-39
2024/03/08 02:08:58;;;;;;;45.80;27.10;;;;;;;-2.87;65.81;100052.21;107495;1254;60510;-39
2024/03/08 02:11:25;;;;;;;45.70;25.90;;;;;;;-2.81;66.16;100046.27;106764;1254;1002908;-38
2024/03/08 02:13:53;;;;;;;45.50;26.30;;;;;;;-2.77;66.27;100044.70;107504;1254;73936;-39
2024/03/08 02:16:24;;;;;;;44.70;28.40;;;;;;;-2.75;66.32;100044.02;107411;1254;66632;-39
2024/03/08 02:18:51;;;;;;;48.80;26.20;;;;;;;-2.74;66.34;100043.39;107386;1254;72681;-39
2024/03/08 02:21:19;;;;;;;41.30;25.90;;;;;;;-2.73;66.26;100042.34;107416;1254;60500;-39
2024/03/08 02:23:46;;;;;;;46.90;26.90;;;;;;;-2.73;65.94;100044.46;107489;1253;60406;-39
2024/03/08 02:26:14;;;;;;;42.80;26.80;;;;;;;-2.76;65.99;100044.33;107405;1254;73842;-39
2024/03/08 02:28:43;;;;;;;47.70;26.70;;;;;;;-2.80;66.30;100044.45;107494;1254;67750;-39
2024/03/08 02:31:11;;;;;;;47.60;26.80;;;;;;;-3.00;66.27;100016.64;107466;1254;72670;-39
2024/03/08 02:33:39;;;;;;;53.10;29.40;;;;;;;-2.84;66.13;100041.89;107453;1254;60415;-39
2024/03/08 02:36:08;;;;;;;50.60;29.40;;;;;;;-2.87;66.00;100044.58;107493;1253;60424;-38
2024/03/08 02:38:36;;;;;;;49.20;28.40;;;;;;;-2.90;66.24;100037.49;107489;1254;73803;-39
2024/03/08 02:41:03;;;;;;;47.50;27.90;;;;;;;-2.95;66.48;100036.45;107496;1254;67656;-39
2024/03/08 02:43:31;;;;;;;46.50;28.00;;;;;;;-2.98;66.52;100032.66;107498;1254;72676;-39
2024/03/08 02:45:59;;;;;;;49.60;26.50;;;;;;;-2.93;66.39;100031.38;107494;1254;61733;-39
2024/03/08 02:48:27;;;;;;;46.40;27.40;;;;;;;-2.84;66.31;100030.48;107485;1254;60352;-39
2024/03/08 02:50:54;;;;;;;47.90;28.10;;;;;;;-2.83;66.31;100031.39;107487;1254;73861;-39
2024/03/08 02:53:22;;;;;;;48.10;28.40;;;;;;;-2.84;66.57;100028.92;107495;1254;66293;-39
2024/03/08 02:55:50;;;;;;;47.40;28.60;;;;;;;-2.83;66.58;100027.95;107489;1259;72727;-39
2024/03/08 02:58:18;;;;;;;51.80;29.30;;;;;;;-2.81;66.43;100022.23;107486;1254;60315;-39
2024/03/08 03:00:46;;;;;;;48.60;28.00;;;;;;;-2.80;66.60;100026.45;107498;1254;61019;-39
2024/03/08 03:03:13;;;;;;;47.10;28.40;;;;;;;-2.82;66.64;100021.27;107508;1254;73819;-39
2024/03/08 03:05:41;;;;;;;50.50;29.40;;;;;;;-2.83;66.51;100020.94;107515;1254;67888;-39
2024/03/08 03:08:16;;;;;;;45.90;27.40;;;;;;;-2.86;66.59;100019.27;107501;1254;72671;-39
2024/03/08 03:10:45;;;;;;;46.00;27.80;;;;;;;-2.91;66.56;100014.79;107501;1254;60553;-39
2024/03/08 03:13:16;;;;;;;48.10;29.50;;;;;;;-2.95;66.69;100015.91;107482;1255;60556;-39
2024/03/08 03:15:46;;;;;;;52.80;29.10;;;;;;;-3.04;66.79;100015.42;107475;1253;72577;-38
2024/03/08 03:18:14;;;;;;;48.90;29.70;;;;;;;-3.09;67.01;100008.91;107519;1254;67398;-39
2024/03/08 03:20:44;;;;;;;44.70;27.30;;;;;;;-3.10;66.95;100012.67;107540;1254;72670;-39
2024/03/08 03:23:14;;;;;;;46.30;27.50;;;;;;;-3.11;66.97;100007.27;107486;1254;60892;-39
2024/03/08 03:25:43;;;;;;;45.40;28.60;;;;;;;-3.13;67.08;100005.23;107504;1258;59624;-39
2024/03/08 03:28:14;;;;;;;47.40;28.10;;;;;;;-3.20;67.32;100011.44;107393;1254;72880;-39
2024/03/08 03:30:43;;;;;;;47.10;28.50;;;;;;;-3.24;67.40;100007.69;106686;1254;1003746;-39
2024/03/08 03:33:12;;;;;;;49.60;29.60;;;;;;;-3.32;67.66;100003.11;107428;1254;71005;-39
2024/03/08 03:35:42;;;;;;;49.50;28.50;;;;;;;-3.39;67.78;100004.54;107506;1254;60312;-39
2024/03/08 03:38:10;;;;;;;36.60;23.00;;;;;;;-3.43;67.92;100003.70;107568;1254;60401;-39
2024/03/08 03:40:39;;;;;;;50.30;28.70;;;;;;;-3.45;67.94;100003.54;107546;1254;73988;-39
2024/03/08 03:43:09;;;;;;;49.40;27.30;;;;;;;-3.51;68.12;100004.53;107529;1254;66691;-39
2024/03/08 03:45:39;;;;;;;49.80;28.70;;;;;;;-3.62;68.29;100003.00;107560;1254;72660;-39
2024/03/08 03:48:09;;;;;;;45.80;27.50;;;;;;;-3.73;68.69;100008.25;107462;1254;61654;-39
2024/03/08 03:50:38;;;;;;;54.30;29.10;;;;;;;-3.76;69.06;100005.50;107518;1258;59215;-39
2024/03/08 03:53:09;;;;;;;50.00;28.10;;;;;;;-3.73;68.95;100007.35;107496;1254;74129;-39
2024/03/08 03:55:38;;;;;;;46.90;27.30;;;;;;;-3.69;69.06;100001.41;107538;1258;67591;-39
2024/03/08 03:58:09;;;;;;;;;;;;;;;-3.69;69.14;100002.36;107572;1254;72689;-39
2024/03/08 04:00:38;;;;;;;44.30;26.60;;;;;;;-3.74;69.30;100000.66;107435;1254;60313;-39
2024/03/08 04:03:07;;;;;;;44.60;26.80;;;;;;;-3.79;69.50;100003.95;107436;1254;59818;-39
2024/03/08 04:05:35;;;;;;;50.40;29.60;;;;;;;-3.84;69.78;100003.30;107408;1254;73831;-39
2024/03/08 04:08:03;;;;;;;50.10;28.80;;;;;;;-3.89;69.83;100006.71;107504;1254;67671;-39
2024/03/08 04:10:31;;;;;;;47.80;29.10;;;;;;;-3.97;70.03;99995.02;107575;1253;72657;-39
2024/03/08 04:12:59;;;;;;;54.70;28.40;;;;;;;-3.95;70.14;100000.06;107500;1253;60105;-39
2024/03/08 04:15:26;;;;;;;57.70;29.50;;;;;;;-3.94;70.45;99997.23;107395;1254;60423;-39
2024/03/08 04:17:54;;;;;;;45.80;28.00;;;;;;;-3.86;70.39;99997.00;107530;1254;73855;-39
2024/03/08 04:20:22;;;;;;;44.80;27.70;;;;;;;-3.82;70.43;99995.17;107504;1254;67559;-39
2024/03/08 04:22:50;;;;;;;47.70;30.00;;;;;;;-3.84;70.73;99996.69;107486;1254;71101;-39
2024/03/08 04:25:17;;;;;;;48.60;28.50;;;;;;;-3.85;70.86;99991.38;107518;1254;59686;-39
2024/03/08 04:27:46;;;;;;;48.50;29.50;;;;;;;-3.87;71.03;99993.48;107525;1254;60357;-39
2024/03/08 04:30:14;;;;;;;34.20;20.50;;;;;;;-3.88;71.17;99993.48;107562;1259;73980;-39
2024/03/08 04:32:42;;;;;;;47.10;29.10;;;;;;;-3.91;71.13;99992.38;107599;1254;67986;-39
2024/03/08 04:35:12;;;;;;;54.50;29.30;;;;;;;-3.93;71.20;99991.89;107536;1254;72716;-39
2024/03/08 04:37:40;;;;;;;;;;;;;;;-3.96;71.53;99986.77;107587;1254;60446;-39
2024/03/08 04:40:08;;;;;;;50.20;29.20;;;;;;;-4.01;71.23;99985.17;107503;1254;60300;-39
2024/03/08 04:42:36;;;;;;;49.40;29.20;;;;;;;-4.01;71.38;99986.23;107509;1254;73831;-39
2024/03/08 04:45:05;;;;;;;47.80;28.70;;;;;;;-3.97;71.36;99981.57;107577;1255;67544;-39
2024/03/08 04:47:33;;;;;;;48.70;28.70;;;;;;;-3.92;71.48;99985.37;107636;1254;70775;-39
2024/03/08 04:50:00;;;;;;;51.90;28.40;;;;;;;-3.90;71.63;99985.66;107595;1254;60469;-39
2024/03/08 04:52:28;;;;;;;51.70;28.20;;;;;;;-3.93;71.66;99985.73;107597;1253;60295;-39
2024/03/08 04:54:56;;;;;;;48.70;28.30;;;;;;;-3.94;71.77;99983.19;107584;1256;73903;-39
2024/03/08 04:57:25;;;;;;;48.50;27.90;;;;;;;-3.98;71.88;99981.77;107579;1254;67563;-39
2024/03/08 04:59:53;;;;;;;47.40;27.60;;;;;;;-4.00;72.03;99985.09;107675;1254;72701;-39
2024/03/08 05:02:22;;;;;;;45.10;28.20;;;;;;;-3.95;72.15;99987.20;107570;1252;61717;-39
2024/03/08 05:04:50;;;;;;;46.50;27.20;;;;;;;-3.88;71.97;99989.06;106844;1254;1003012;-39
2024/03/08 05:07:19;;;;;;;46.70;28.70;;;;;;;-3.84;71.88;99988.11;107579;1254;73871;-38
2024/03/08 05:09:51;;;;;;;44.50;26.50;;;;;;;-3.84;72.18;99989.44;107578;1253;66788;-38
2024/03/08 05:12:19;;;;;;;46.30;26.80;;;;;;;-3.82;72.61;99991.35;107534;1254;72745;-39
2024/03/08 05:14:49;;;;;;;45.50;28.00;;;;;;;-3.80;72.72;99990.05;107599;1254;60550;-38
2024/03/08 05:17:17;;;;;;;51.20;29.40;;;;;;;-3.78;72.91;99993.68;106969;1254;1003408;-38
2024/03/08 05:19:45;;;;;;;49.80;28.80;;;;;;;-3.75;72.82;99996.25;107564;1253;73859;-38
2024/03/08 05:22:13;;;;;;;44.70;27.20;;;;;;;-3.70;73.04;99995.88;107688;1253;67568;-39
2024/03/08 05:24:41;;;;;;;45.00;27.20;;;;;;;-3.57;73.02;99997.59;107559;1254;72672;-38
2024/03/08 05:27:08;;;;;;;44.00;26.80;;;;;;;-3.48;72.73;99993.06;107568;1256;61273;-39
2024/03/08 05:29:36;;;;;;;45.10;26.70;;;;;;;-3.42;73.11;99992.48;107636;1254;60418;-39
2024/03/08 05:32:04;;;;;;;51.80;28.40;;;;;;;-3.37;73.12;99993.90;107687;1254;73815;-38
2024/03/08 05:34:32;;;;;;;45.30;27.20;;;;;;;-3.32;73.25;99988.55;107588;1253;67570;-38
2024/03/08 05:37:01;;;;;;;44.50;26.30;;;;;;;-3.26;73.32;99988.27;107533;1254;71800;-38
2024/03/08 05:39:29;;;;;;;45.00;27.20;;;;;;;-3.20;73.27;99988.69;107594;1254;60332;-39
2024/03/08 05:41:56;;;;;;;41.80;26.30;;;;;;;-3.12;73.52;99986.30;106758;1253;1002837;-39
2024/03/08 05:44:24;;;;;;;47.50;25.60;;;;;;;-3.01;73.38;99982.67;107538;1254;74123;-38
2024/03/08 05:46:52;;;;;;;41.00;25.90;;;;;;;-2.90;73.36;99981.46;107726;1254;66277;-39
2024/03/08 05:49:19;;;;;;;38.30;24.20;;;;;;;-2.80;73.48;99982.42;107572;1254;71404;-39
2024/03/08 05:51:48;;;;;;;37.30;23.90;;;;;;;-2.74;73.73;99979.34;107657;1253;60408;-38
2024/03/08 05:54:16;;;;;;;35.30;19.80;;;;;;;-2.69;73.69;99976.56;107620;1254;59243;-38
2024/03/08 05:56:47;;;;;;;37.10;23.60;;;;;;;-2.62;73.74;99975.41;107583;1256;73825;-39
2024/03/08 05:59:15;;;;;;;38.50;24.40;;;;;;;-2.52;73.70;99974.98;107710;1253;66808;-38
2024/03/08 06:01:43;;;;;;;41.10;24.40;;;;;;;-2.39;73.72;99973.09;107564;1254;72749;-39
2024/03/08 06:04:11;;;;;;;41.00;23.70;;;;;;;-2.25;73.30;99973.62;107527;1254;60928;-38
2024/03/08 06:06:39;;;;;;;40.60;24.00;;;;;;;-2.11;73.09;99973.88;107564;1254;62318;-39
2024/03/08 06:09:16;;;;;;;38.20;24.10;;;;;;;-2.01;72.83;99973.48;107656;1256;73773;-39
2024/03/08 06:11:44;;;;;;;38.60;24.00;;;;;;;-1.92;72.60;99973.94;107598;1256;69069;-38
2024/03/08 06:14:12;;;;;;;34.40;23.70;;;;;;;-1.86;72.66;99979.36;107683;1254;72713;-39
2024/03/08 06:16:39;;;;;;;41.40;25.00;;;;;;;-1.81;72.35;99981.50;107699;1254;60331;-38
2024/03/08 06:19:07;;;;;;;42.70;26.20;;;;;;;-1.75;72.09;99977.90;107711;1254;60305;-38
2024/03/08 06:21:35;;;;;;;38.50;24.10;;;;;;;-1.66;71.94;99978.77;107612;1252;73840;-38
2024/03/08 06:24:04;;;;;;;41.30;25.40;;;;;;;-1.54;71.92;99978.94;107584;1254;67580;-39
2024/03/08 06:26:31;;;;;;;39.40;24.10;;;;;;;-1.44;71.70;99979.90;107745;1253;73018;-38
2024/03/08 06:29:02;;;;;;;41.20;24.20;;;;;;;-1.38;71.90;99980.16;107587;1254;60530;-38
2024/03/08 06:31:29;;;;;;;40.10;24.30;;;;;;;-1.28;71.72;99984.80;107527;1252;59247;-38
2024/03/08 06:33:57;;;;;;;38.50;24.60;;;;;;;-1.19;71.68;99979.00;107665;1252;72975;-39
2024/03/08 06:36:25;;;;;;;36.00;23.20;;;;;;;-1.11;71.46;99979.74;107680;1252;65782;-38
2024/03/08 06:38:53;;;;;;;44.10;25.20;;;;;;;-1.02;71.31;99978.25;107609;1253;72676;-39
2024/03/08 06:41:21;;;;;;;37.30;22.50;;;;;;;-0.90;71.05;99974.98;107681;1253;60878;-39
2024/03/08 06:43:51;;;;;;;38.30;23.50;;;;;;;-0.74;71.14;99978.73;107535;1253;60527;-38
2024/03/08 06:46:20;;;;;;;34.20;22.80;;;;;;;-0.57;70.88;99974.70;107596;1254;74959;-38
2024/03/08 06:48:49;;;;;;;39.30;22.70;;;;;;;-0.45;70.85;99970.98;107548;1256;67468;-38
2024/03/08 06:51:18;;;;;;;40.30;22.30;;;;;;;-0.33;70.79;99966.46;107549;1254;72843;-38
2024/03/08 06:53:45;;;;;;;36.30;23.00;;;;;;;-0.22;70.30;99966.36;107427;1253;60291;-38
2024/03/08 06:56:13;;;;;;;41.90;23.10;;;;;;;-0.16;70.14;99969.32;107585;1254;60075;-39
2024/03/08 06:58:42;;;;;;;36.50;23.30;;;;;;;-0.12;69.75;99966.70;107552;1255;71286;-39
2024/03/08 07:01:13;;;;;;;42.10;23.70;;;;;;;-0.11;69.49;99966.15;107578;1251;70236;-39
2024/03/08 07:03:45;;;;;;;39.30;24.10;;;;;;;-0.11;69.48;99961.72;107606;1251;72674;-39
2024/03/08 07:06:14;;;;;;;35.60;22.50;;;;;;;-0.03;69.53;99957.63;107725;1252;60437;-39
2024/03/08 07:08:42;;;;;;;32.90;16.90;;;;;;;0.13;69.20;99958.61;107731;1251;60294;-38
2024/03/08 07:11:11;;;;;;;35.10;20.60;;;;;;;0.19;68.90;99956.02;107726;1256;73968;-39
2024/03/08 07:13:39;;;;;;;36.30;21.80;;;;;;;0.22;68.64;99960.20;107711;1251;68005;-38
2024/03/08 07:16:07;;;;;;;34.20;22.30;;;;;;;0.31;68.93;99958.02;107355;1254;72823;-39
2024/03/08 07:18:39;;;;;;;32.50;21.00;;;;;;;0.41;68.56;99958.59;107542;1254;60569;-39
2024/03/08 07:21:07;;;;;;;35.20;20.90;;;;;;;0.48;68.33;99956.14;107566;1256;61555;-39
2024/03/08 07:24:02;;;;;;;32.80;20.70;;;;;;;0.54;67.92;99958.92;107512;1254;73057;-39
2024/03/08 07:26:31;;;;;;;33.90;21.60;;;;;;;0.67;67.85;99954.97;107568;1254;66451;-39
2024/03/08 07:29:00;;;;;;;36.50;20.90;;;;;;;0.81;67.78;99959.39;107535;1254;72730;-39
2024/03/08 07:34:07;;;;;;;27.70;19.60;;;;;;;1.33;67.16;99951.46;107505;1253;60302;-39
2024/03/08 07:36:35;;;;;;;30.00;19.40;;;;;;;1.56;66.73;99949.27;107495;1253;73159;-39
2024/03/08 07:39:05;;;;;;;29.10;18.80;;;;;;;1.81;65.92;99950.73;107499;1254;69795;-39
2024/03/08 07:41:36;;;;;;;29.90;16.50;;;;;;;2.05;64.34;99952.48;107489;1254;73103;-39
2024/03/08 07:44:04;;;;;;;22.00;14.60;;;;;;;2.28;62.95;99946.67;107436;1253;60504;-39
2024/03/08 07:46:33;;;;;;;22.90;14.60;;;;;;;2.47;61.75;99948.40;107467;1254;60517;-38
2024/03/08 07:49:02;;;;;;;28.30;18.50;;;;;;;2.70;61.01;99949.81;107493;1254;72760;-38
2024/03/08 07:51:30;;;;;;;20.70;13.90;;;;;;;2.88;60.33;99941.69;107372;1259;68527;-39
2024/03/08 07:53:58;;;;;;;27.60;17.90;;;;;;;3.05;58.97;99934.46;107507;1257;72444;-39
2024/03/08 07:56:25;;;;;;;23.30;14.10;;;;;;;3.21;59.17;99940.34;107562;1254;60551;-38
2024/03/08 07:58:53;;;;;;;23.50;16.40;;;;;;;3.39;58.04;99936.56;107582;1253;61666;-39
2024/03/08 08:01:21;;;;;;;25.00;16.60;;;;;;;3.60;57.71;99938.84;107553;1253;74246;-39
2024/03/08 08:03:49;;;;;;;25.50;17.20;;;;;;;3.78;57.31;99936.70;107585;1253;68332;-39
2024/03/08 08:06:16;;;;;;;25.00;16.90;;;;;;;3.95;56.41;99937.09;107555;1254;72792;-39
2024/03/08 08:08:44;;;;;;;26.50;16.20;;;;;;;4.08;55.49;99934.11;107428;1254;193512;-39
2024/03/08 08:12:35;;;;;;;30.80;19.10;;;;;;;4.29;54.73;99937.61;104103;1292;600403;-40
2024/03/08 08:15:03;;;;;;;24.80;16.20;;;;;;;4.36;54.95;99935.73;106581;1267;59338;-39
2024/03/08 08:17:31;;;;;;;21.00;13.00;;;;;;;4.53;53.25;99932.96;106656;1267;59353;-40
2024/03/08 08:19:59;;;;;;;16.10;11.40;;;;;;;4.73;52.40;99931.68;106655;1266;73563;-39
2024/03/08 08:22:27;;;;;;;17.60;12.20;;;;;;;4.98;51.71;99930.20;106660;1266;66194;-39
2024/03/08 08:24:55;;;;;;;26.00;16.70;;;;;;;5.24;51.59;99928.41;106649;1267;71457;-39
2024/03/08 08:27:26;;;;;;;17.50;12.30;;;;;;;5.33;51.68;99927.30;106606;1267;200618;-39
2024/03/08 08:29:53;;;;;;;15.60;11.00;;;;;;;5.41;50.56;99923.61;106733;1264;62240;-39
2024/03/08 08:32:22;;;;;;;24.70;16.50;;;;;;;5.54;48.43;99919.52;106776;1264;71100;-40
2024/03/08 08:34:49;;;;;;;26.90;16.80;;;;;;;5.59;49.71;99911.36;106792;1267;67869;-40
2024/03/08 08:37:17;;;;;;;25.30;17.20;;;;;;;5.55;50.43;99913.16;106784;1267;71512;-39
2024/03/08 08:39:47;;;;;;;17.90;12.60;;;;;;;5.60;50.31;99907.35;106745;1264;59564;-40
2024/03/08 08:42:15;;;;;;;17.40;12.00;;;;;;;5.72;47.89;99909.86;106796;1266;60043;-39
2024/03/08 08:44:42;;;;;;;19.00;12.40;;;;;;;5.89;47.21;99910.20;106789;1265;73192;-40
2024/03/08 08:47:10;;;;;;;19.40;11.80;;;;;;;6.04;46.10;99910.83;106804;1266;66828;-40
2024/03/08 08:49:42;;;;;;;17.30;12.50;;;;;;;6.16;46.34;99907.60;106703;1267;73129;-39
2024/03/08 08:52:10;;;;;;;17.10;11.80;;;;;;;6.34;45.84;99904.56;106722;1267;59701;-39
2024/03/08 08:54:44;;;;;;;16.40;11.70;;;;;;;6.55;45.26;99904.14;106782;1263;60611;-39
2024/03/08 08:57:17;;;;;;;16.80;12.70;;;;;;;6.74;44.66;99900.77;106799;1265;71283;-40
2024/03/08 08:59:45;;;;;;;19.50;12.50;;;;;;;6.88;44.22;99897.50;106802;1264;68312;-40
2024/03/08 09:02:16;;;;;;;17.70;12.70;;;;;;;6.99;43.93;99889.80;106714;1267;71543;-39
2024/03/08 09:04:45;;;;;;;18.40;11.80;;;;;;;7.02;43.56;99887.09;106788;1264;59511;-39
2024/03/08 09:07:13;;;;;;;15.00;9.50;;;;;;;7.05;42.58;99886.95;106751;1264;59506;-40
2024/03/08 09:09:42;;;;;;;16.60;10.80;;;;;;;7.11;41.93;99885.59;106766;1267;71317;-39
2024/03/08 09:12:13;;;;;;;12.70;8.70;;;;;;;7.18;41.31;99885.27;106796;1264;68377;-39
2024/03/08 09:14:41;;;;;;;13.70;8.90;;;;;;;7.28;40.28;99884.86;106825;1267;71500;-40
2024/03/08 09:17:09;;;;;;;12.10;8.60;;;;;;;7.36;39.38;99875.05;106762;1264;59574;-39
2024/03/08 09:19:36;;;;;;;13.30;8.00;;;;;;;7.53;39.32;99880.10;106066;1264;1002982;-39
2024/03/08 09:22:04;;;;;;;14.10;8.40;;;;;;;7.64;38.69;99872.99;106740;1267;71883;-40
2024/03/08 09:24:32;;;;;;;10.10;7.70;;;;;;;7.83;38.85;99871.47;107165;1257;69290;-40
2024/03/08 09:26:59;;;;;;;11.60;8.30;;;;;;;8.03;37.70;99866.84;107130;1257;72796;-39
2024/03/08 09:29:28;;;;;;;11.40;7.70;;;;;;;8.13;37.08;99871.04;107199;1257;59691;-39
2024/03/08 09:31:55;;;;;;;13.60;8.60;;;;;;;8.22;37.51;99869.40;106440;1257;1003606;-40
2024/03/08 09:34:23;;;;;;;11.60;8.20;;;;;;;8.37;37.72;99869.73;107169;1261;71872;-40
2024/03/08 09:37:04;;;;;;;12.50;8.40;;;;;;;8.51;37.12;99863.88;107254;1257;67512;-39
2024/03/08 09:39:33;;;;;;;10.30;7.70;;;;;;;8.66;36.67;99855.52;107254;1257;73126;-40
2024/03/08 09:42:02;;;;;;;9.80;6.60;;;;;;;8.76;35.92;99859.10;107192;1257;59800;-40
2024/03/08 09:44:29;;;;;;;9.50;6.00;;;;;;;8.84;35.24;99856.65;107389;1257;62312;-40
2024/03/08 09:46:58;;;;;;;10.70;7.00;;;;;;;8.91;34.99;99855.13;107233;1257;73426;-39
2024/03/08 09:49:26;;;;;;;9.30;7.00;;;;;;;8.89;34.85;99857.77;107272;1257;68502;-40
2024/03/08 09:51:53;;;;;;;10.00;6.20;;;;;;;8.89;34.13;99860.40;107210;1257;72796;-39
2024/03/08 09:54:22;;;;;;;8.40;6.00;;;;;;;8.94;33.64;99854.00;107090;1259;59743;-39
2024/03/08 09:56:52;;;;;;;10.70;6.40;;;;;;;8.98;33.73;99856.55;107048;1258;59570;-39
2024/03/08 10:01:58;;;;;;;9.40;6.50;;;;;;;9.20;34.24;99853.35;107267;1262;70228;-39
2024/03/08 10:04:28;;;;;;;9.20;6.20;;;;;;;9.24;33.80;99850.55;107248;1257;72887;-39
2024/03/08 10:07:01;;;;;;;8.80;5.40;;;;;;;9.19;33.41;99850.02;107139;1257;59749;-40
2024/03/08 10:09:29;;;;;;;8.70;5.80;;;;;;;9.23;33.20;99848.11;107264;1257;60117;-39
2024/03/08 10:11:57;;;;;;;7.30;5.50;;;;;;;9.33;33.35;99844.12;107138;1262;71493;-39
2024/03/08 10:14:26;;;;;;;9.90;5.90;;;;;;;9.47;32.92;99848.05;107139;1257;66516;-40
2024/03/08 10:16:54;;;;;;;8.30;6.10;;;;;;;9.56;32.27;99837.48;107180;1257;71234;-40
2024/03/08 10:19:22;;;;;;;7.40;5.70;;;;;;;9.51;31.90;99836.80;107217;1257;59717;-40
2024/03/08 10:21:53;;;;;;;9.70;5.10;;;;;;;9.45;32.21;99839.62;107117;1257;62653;-40
2024/03/08 10:24:23;;;;;;;7.10;4.80;;;;;;;9.39;31.45;99836.90;107216;1257;73466;-40
2024/03/08 10:27:04;;;;;;;11.00;5.30;;;;;;;9.29;31.61;99835.73;107173;1257;66567;-40
2024/03/08 10:29:32;;;;;;;8.60;5.40;;;;;;;9.23;31.72;99832.66;107248;1260;71517;-40
2024/03/08 10:32:00;;;;;;;9.60;6.10;;;;;;;9.24;31.92;99829.70;107189;1257;59628;-40
2024/03/08 10:34:29;;;;;;;7.70;5.70;;;;;;;9.30;31.68;99826.79;107045;1257;61105;-40
2024/03/08 10:37:04;;;;;;;9.50;5.70;;;;;;;9.36;31.83;99819.31;107225;1256;73053;-40
2024/03/08 10:39:35;;;;;;;9.10;6.20;;;;;;;9.43;32.12;99815.21;107212;1262;68992;-40
2024/03/08 10:42:04;;;;;;;10.30;6.40;;;;;;;9.59;31.79;99812.29;107236;1260;71484;-40
2024/03/08 10:44:50;;;;;;;9.10;6.30;;;;;;;9.68;31.55;99810.63;107139;1258;61021;-40
2024/03/08 10:47:22;;;;;;;10.30;7.00;;;;;;;9.72;31.40;99807.95;107227;1260;61098;-40
2024/03/08 10:50:21;;;;;;;8.70;6.60;;;;;;;9.68;31.23;99802.20;107172;1257;73415;-40
2024/03/08 10:52:52;;;;;;;8.90;6.60;;;;;;;9.78;31.48;99802.55;107240;1257;68075;-41
2024/03/08 10:55:20;;;;;;;9.50;6.10;;;;;;;9.92;31.24;99799.48;107176;1257;72931;-40
2024/03/08 10:57:48;;;;;;;9.30;6.40;;;;;;;10.04;31.02;99798.11;107198;1257;60457;-40
2024/03/08 11:00:16;;;;;;;9.40;6.20;;;;;;;10.15;30.33;99796.48;107256;1257;60097;-40
2024/03/08 11:02:44;;;;;;;10.30;6.80;;;;;;;10.19;30.34;99791.73;107180;1257;74007;-40
2024/03/08 11:05:38;;;;;;;10.00;6.00;;;;;;;10.25;31.07;99789.96;107179;1257;66518;-41
2024/03/08 11:08:20;;;;;;;12.30;8.10;;;;;;;10.52;31.40;99784.41;107204;1261;71491;-40
2024/03/08 11:10:55;;;;;;;9.50;6.60;;;;;;;10.90;31.48;99781.33;107180;1258;60974;-41
2024/03/08 11:13:36;;;;;;;11.50;6.70;;;;;;;11.23;30.25;99781.87;107131;1257;59402;-40
2024/03/08 11:16:09;;;;;;;9.10;6.30;;;;;;;11.36;29.99;99772.71;107150;1257;72399;-40
2024/03/08 11:18:37;;;;;;;11.90;7.30;;;;;;;11.51;29.52;99771.42;107047;1257;68001;-41
2024/03/08 11:21:12;;;;;;;8.50;6.50;;;;;;;11.71;29.70;99770.67;107108;1257;71531;-41
2024/03/08 11:23:40;;;;;;;13.00;7.10;;;;;;;11.86;29.12;99767.67;107193;1258;59714;-40
2024/03/08 11:26:21;;;;;;;10.50;7.40;;;;;;;11.99;29.17;99761.95;107181;1257;59534;-40